createdAt,value
2023-03-06T00:00:38.990Z,52.50
2023-03-06T00:03:08.408Z,52.40
2023-03-06T00:05:38.024Z,52.40
2023-03-06T00:08:07.352Z,52.30
2023-03-06T00:10:37.284Z,52.20
2023-03-06T00:13:13.080Z,52.20
2023-03-06T00:15:42.913Z,52.40
2023-03-06T00:18:12.205Z,52.40
2023-03-06T00:20:43.617Z,53.10
2023-03-06T00:23:13.228Z,52.50
2023-03-06T00:25:44.871Z,52.60
2023-03-06T00:28:15.839Z,52.60
2023-03-06T00:30:47.515Z,52.60
2023-03-06T00:33:16.800Z,52.70
2023-03-06T00:35:46.116Z,52.80
2023-03-06T00:38:15.471Z,52.80
2023-03-06T00:40:44.892Z,53.00
2023-03-06T00:43:14.526Z,53.00
2023-03-06T00:45:44.622Z,53.00
2023-03-06T00:48:13.934Z,53.00
2023-03-06T00:50:43.171Z,53.00
2023-03-06T00:53:13.423Z,53.00
2023-03-06T00:55:46.105Z,53.00
2023-03-06T00:58:15.341Z,53.00
2023-03-06T01:00:45.489Z,53.00
2023-03-06T01:03:16.282Z,53.10
2023-03-06T01:05:45.966Z,53.10
2023-03-06T01:08:15.298Z,53.60
2023-03-06T01:10:44.644Z,53.00
2023-03-06T01:13:13.983Z,53.10
2023-03-06T01:15:43.263Z,53.10
2023-03-06T01:18:12.731Z,53.10
2023-03-06T01:20:42.149Z,53.10
2023-03-06T01:23:11.408Z,53.10
2023-03-06T01:25:40.684Z,53.20
2023-03-06T01:28:09.959Z,53.30
2023-03-06T01:30:39.272Z,53.90
2023-03-06T01:33:08.469Z,53.30
2023-03-06T01:35:41.110Z,53.30
2023-03-06T01:38:10.826Z,53.30
2023-03-06T01:40:40.480Z,53.40
2023-03-06T01:43:26.562Z,53.50
2023-03-06T01:46:42.004Z,53.40
2023-03-06T01:49:32.210Z,53.50
2023-03-06T01:52:12.574Z,53.40
2023-03-06T01:54:52.117Z,53.60
2023-03-06T01:57:29.874Z,53.60
2023-03-06T02:00:18.443Z,53.60
2023-03-06T02:02:55.898Z,53.80
2023-03-06T02:05:25.266Z,53.90
2023-03-06T02:07:56.021Z,53.90
2023-03-06T02:10:25.616Z,53.90
2023-03-06T02:12:55.366Z,53.80
2023-03-06T02:15:27.203Z,53.80
2023-03-06T02:17:56.987Z,53.80
2023-03-06T02:20:51.851Z,53.90
2023-03-06T02:23:51.596Z,53.90
2023-03-06T02:26:22.104Z,53.90
2023-03-06T02:28:51.440Z,53.80
2023-03-06T02:31:31.409Z,53.80
2023-03-06T02:34:15.140Z,53.90
2023-03-06T02:36:57.333Z,54.00
2023-03-06T02:39:33.721Z,54.20
2023-03-06T02:42:03.425Z,54.30
2023-03-06T02:44:36.279Z,54.40
2023-03-06T02:47:05.805Z,54.50
2023-03-06T02:49:35.096Z,54.60
2023-03-06T02:52:04.828Z,54.70
2023-03-06T02:54:34.191Z,54.90
2023-03-06T02:57:03.570Z,54.90
2023-03-06T02:59:34.293Z,55.10
2023-03-06T03:02:05.055Z,55.10
2023-03-06T03:04:36.454Z,55.20
2023-03-06T03:07:06.213Z,55.30
2023-03-06T03:09:36.950Z,55.40
2023-03-06T03:12:08.008Z,55.40
2023-03-06T03:14:37.584Z,55.40
2023-03-06T03:17:06.975Z,55.50
2023-03-06T03:19:36.264Z,55.60
2023-03-06T03:22:05.828Z,55.60
2023-03-06T03:24:35.248Z,55.80
2023-03-06T03:27:05.368Z,55.90
2023-03-06T03:29:35.106Z,56.10
2023-03-06T03:32:05.700Z,56.20
2023-03-06T03:34:35.132Z,56.30
2023-03-06T03:37:05.486Z,56.50
2023-03-06T03:39:34.899Z,56.50
2023-03-06T03:42:06.062Z,56.50
2023-03-06T03:44:35.948Z,56.50
2023-03-06T03:47:05.953Z,56.60
2023-03-06T03:49:35.249Z,56.70
2023-03-06T03:52:05.875Z,56.90
2023-03-06T03:54:37.132Z,56.90
2023-03-06T03:57:06.501Z,56.90
2023-03-06T03:59:39.848Z,57.10
2023-03-06T04:02:23.825Z,57.30
2023-03-06T04:05:17.121Z,57.30
2023-03-06T04:07:46.440Z,57.90
2023-03-06T04:10:17.082Z,57.30
2023-03-06T04:12:46.620Z,57.50
2023-03-06T04:15:15.853Z,57.50
2023-03-06T04:17:47.588Z,57.50
2023-03-06T04:20:20.985Z,57.50
2023-03-06T04:22:50.884Z,57.70
2023-03-06T04:25:20.455Z,57.90
2023-03-06T04:27:49.883Z,58.10
2023-03-06T04:30:20.051Z,58.20
2023-03-06T04:32:50.236Z,58.30
2023-03-06T04:35:19.656Z,58.30
2023-03-06T04:37:58.434Z,58.40
2023-03-06T04:40:33.943Z,58.50
2023-03-06T04:43:04.994Z,58.80
2023-03-06T04:45:35.072Z,59.00
2023-03-06T04:48:04.756Z,59.20
2023-03-06T04:50:34.647Z,59.30
2023-03-06T04:53:04.837Z,59.50
2023-03-06T04:55:35.007Z,59.70
2023-03-06T04:58:04.360Z,60.00
2023-03-06T05:00:33.658Z,60.20
2023-03-06T05:03:02.955Z,60.50
2023-03-06T05:05:32.240Z,60.70
2023-03-06T05:08:01.445Z,61.00
2023-03-06T05:10:30.874Z,61.20
2023-03-06T05:13:00.281Z,61.50
2023-03-06T05:15:29.524Z,61.80
2023-03-06T05:17:59.066Z,61.90
2023-03-06T05:20:28.848Z,62.10
2023-03-06T05:22:58.125Z,62.30
2023-03-06T05:25:27.492Z,62.50
2023-03-06T05:27:56.762Z,62.50
2023-03-06T05:30:26.294Z,62.30
2023-03-06T05:32:55.575Z,62.10
2023-03-06T05:35:25.343Z,62.30
2023-03-06T05:37:54.609Z,62.40
2023-03-06T05:40:23.827Z,62.40
2023-03-06T05:42:53.125Z,62.50
2023-03-06T05:45:22.352Z,62.60
2023-03-06T05:47:51.567Z,62.50
2023-03-06T05:50:20.938Z,62.70
2023-03-06T05:52:50.502Z,62.70
2023-03-06T05:55:21.769Z,62.60
2023-03-06T05:57:52.001Z,62.30
2023-03-06T06:00:22.529Z,62.10
2023-03-06T06:02:52.035Z,61.90
2023-03-06T06:05:21.353Z,61.90
2023-03-06T06:07:50.569Z,62.10
2023-03-06T06:10:20.044Z,62.00
2023-03-06T06:12:49.475Z,61.80
2023-03-06T06:15:18.795Z,61.60
2023-03-06T06:17:48.073Z,61.40
2023-03-06T06:20:17.913Z,61.20
2023-03-06T06:22:47.262Z,61.10
2023-03-06T06:25:17.008Z,61.20
2023-03-06T06:27:46.306Z,61.10
2023-03-06T06:30:15.855Z,61.20
2023-03-06T06:32:45.167Z,61.10
2023-03-06T06:35:14.694Z,61.10
2023-03-06T06:37:44.056Z,61.00
2023-03-06T06:40:13.814Z,60.80
2023-03-06T06:42:43.625Z,60.60
2023-03-06T06:45:13.266Z,60.40
2023-03-06T06:47:43.609Z,60.10
2023-03-06T06:50:14.301Z,59.70
2023-03-06T06:52:43.642Z,59.40
2023-03-06T06:55:13.533Z,59.10
2023-03-06T06:57:42.972Z,58.90
2023-03-06T07:00:15.451Z,58.70
2023-03-06T07:02:49.087Z,58.50
2023-03-06T07:05:21.132Z,58.40
2023-03-06T07:07:51.528Z,58.50
2023-03-06T07:10:21.222Z,58.40
2023-03-06T07:12:50.610Z,58.20
2023-03-06T07:15:20.149Z,57.90
2023-03-06T07:17:50.279Z,57.70
2023-03-06T07:20:20.582Z,57.50
2023-03-06T07:22:51.884Z,57.20
2023-03-06T07:25:22.449Z,56.80
2023-03-06T07:27:54.602Z,56.50
2023-03-06T07:30:25.028Z,56.20
2023-03-06T07:32:57.823Z,55.90
2023-03-06T07:35:27.543Z,55.60
2023-03-06T07:37:57.667Z,55.30
2023-03-06T07:40:27.795Z,55.00
2023-03-06T07:43:09.408Z,54.70
2023-03-06T07:45:57.873Z,54.40
2023-03-06T07:48:28.037Z,54.10
2023-03-06T07:51:04.868Z,54.00
2023-03-06T07:53:35.197Z,53.70
2023-03-06T07:56:09.368Z,53.50
2023-03-06T07:58:42.947Z,53.40
2023-03-06T08:01:16.335Z,53.30
2023-03-06T08:03:46.497Z,52.90
2023-03-06T08:06:26.298Z,52.60
2023-03-06T08:08:56.834Z,52.40
2023-03-06T08:11:30.007Z,52.10
2023-03-06T08:14:00.024Z,52.00
2023-03-06T08:16:30.903Z,51.80
2023-03-06T08:19:00.175Z,51.40
2023-03-06T08:21:29.619Z,51.00
2023-03-06T08:23:59.415Z,51.00
2023-03-06T08:26:32.093Z,50.70
2023-03-06T08:29:02.919Z,50.30
2023-03-06T08:31:36.859Z,50.00
2023-03-06T08:34:11.049Z,50.20
2023-03-06T08:36:40.914Z,50.20
2023-03-06T08:39:10.934Z,50.10
2023-03-06T08:41:42.195Z,50.00
2023-03-06T08:44:12.590Z,49.80
2023-03-06T08:46:42.273Z,49.50
2023-03-06T08:49:13.482Z,49.40
2023-03-06T08:51:43.055Z,49.40
2023-03-06T08:54:13.426Z,49.00
2023-03-06T08:56:42.948Z,48.60
2023-03-06T08:59:13.467Z,48.50
2023-03-06T09:01:42.894Z,48.60
2023-03-06T09:04:12.404Z,48.50
2023-03-06T09:06:44.249Z,49.00
2023-03-06T09:09:13.818Z,48.30
2023-03-06T09:11:43.191Z,48.10
2023-03-06T09:14:12.592Z,48.20
2023-03-06T09:16:41.975Z,48.00
2023-03-06T09:19:11.388Z,47.70
2023-03-06T09:21:40.742Z,47.50
2023-03-06T09:24:10.243Z,47.60
2023-03-06T09:26:45.874Z,47.70
2023-03-06T09:29:17.159Z,47.70
2023-03-06T09:31:46.711Z,48.00
2023-03-06T09:34:16.064Z,47.90
2023-03-06T09:36:56.547Z,48.00
2023-03-06T09:39:27.226Z,48.00
2023-03-06T09:41:58.561Z,48.30
2023-03-06T09:44:38.152Z,48.60
2023-03-06T09:47:45.112Z,48.90
2023-03-06T09:50:42.298Z,49.00
2023-03-06T09:54:02.456Z,49.60
2023-03-06T09:56:35.823Z,49.80
2023-03-06T09:59:21.929Z,49.90
2023-03-06T10:02:14.849Z,50.10
2023-03-06T10:04:56.142Z,50.30
2023-03-06T10:08:06.505Z,50.30
2023-03-06T10:11:05.720Z,49.90
2023-03-06T10:13:50.323Z,49.90
2023-03-06T10:16:29.022Z,49.90
2023-03-06T10:19:14.065Z,50.30
2023-03-06T10:21:54.838Z,50.60
2023-03-06T10:24:35.701Z,50.50
2023-03-06T10:27:44.984Z,50.50
2023-03-06T10:30:45.849Z,50.90
2023-03-06T10:33:41.305Z,51.10
2023-03-06T10:36:18.586Z,51.70
2023-03-06T10:38:49.293Z,52.20
2023-03-06T10:41:35.774Z,52.50
2023-03-06T10:44:05.132Z,52.50
2023-03-06T10:46:48.097Z,52.80
2023-03-06T10:49:36.255Z,53.20
2023-03-06T10:52:21.651Z,53.10
2023-03-06T10:54:50.946Z,53.00
2023-03-06T10:57:28.061Z,52.90
2023-03-06T10:59:59.852Z,53.10
2023-03-06T11:02:39.482Z,53.50
2023-03-06T11:05:27.201Z,53.90
2023-03-06T11:08:00.959Z,54.20
2023-03-06T11:10:32.015Z,54.00
2023-03-06T11:13:06.296Z,54.10
2023-03-06T11:15:36.334Z,54.20
2023-03-06T11:18:55.435Z,54.50
2023-03-06T11:21:35.886Z,54.70
2023-03-06T11:24:20.097Z,54.90
2023-03-06T11:27:05.791Z,55.50
2023-03-06T11:29:46.773Z,55.70
2023-03-06T11:32:45.377Z,56.00
2023-03-06T11:35:24.608Z,56.30
2023-03-06T11:37:59.253Z,56.30
2023-03-06T11:40:51.457Z,56.40
2023-03-06T11:43:55.535Z,56.90
2023-03-06T11:46:43.815Z,57.10
2023-03-06T11:49:50.796Z,57.70
2023-03-06T11:52:40.799Z,58.10
2023-03-06T11:55:17.696Z,58.90
2023-03-06T11:58:05.823Z,59.50
2023-03-06T12:00:57.277Z,59.90
2023-03-06T12:03:53.725Z,60.20
2023-03-06T12:07:08.614Z,60.70
2023-03-06T12:10:07.164Z,61.40
2023-03-06T12:13:02.757Z,61.70
2023-03-06T12:16:29.900Z,61.90
2023-03-06T12:19:35.688Z,62.20
2023-03-06T12:22:40.995Z,62.60
